Time;durP1;ratioP1;P1;durP2;ratioP2;P2;SDS_P1;SDS_P2;PMS_P1;PMS_P2;Temp;Humidity;BMP_temperature;BMP_pressure;BME280_temperature;BME280_humidity;BME280_pressure;Samples;Min_cycle;Max_cycle;Signal;HPM_P1;HPM_P2
2022/08/09 00:02:24;;;;;;;0.10;0.10;;;;;;;;;;4901388;29;20044;-89
2022/08/09 00:04:50;;;;;;;0.10;0.10;;;;;;;;;;4901588;29;20412;-88
2022/08/09 00:07:18;;;;;;;0.10;0.10;;;;;;;;;;4901731;29;20040;-89
2022/08/09 00:09:44;;;;;;;0.10;0.10;;;;;;;;;;4901228;29;20047;-89
2022/08/09 00:12:10;;;;;;;0.05;0.05;;;;;;;;;;4901575;29;20130;-88
2022/08/09 00:14:36;;;;;;;0.10;0.10;;;;;;;;;;4901158;29;20040;-88
2022/08/09 00:17:04;;;;;;;0.10;0.10;;;;;;;;;;4901291;29;20386;-88
2022/08/09 00:19:30;;;;;;;0.10;0.10;;;;;;;;;;4901074;29;20036;-88
2022/08/09 00:21:56;;;;;;;0.10;0.10;;;;;;;;;;4916869;29;20123;-88
2022/08/09 00:24:22;;;;;;;0.10;0.10;;;;;;;;;;4901030;29;20447;-88
2022/08/09 00:26:48;;;;;;;0.10;0.10;;;;;;;;;;4900899;29;20105;-89
2022/08/09 00:29:17;;;;;;;0.10;0.10;;;;;;;;;;4900027;29;20046;-89
2022/08/09 00:31:43;;;;;;;0.10;0.10;;;;;;;;;;4901013;29;20503;-89
2022/08/09 00:34:09;;;;;;;0.10;0.10;;;;;;;;;;4901106;29;20043;-89
2022/08/09 00:36:35;;;;;;;0.10;0.10;;;;;;;;;;4900805;29;20044;-89
2022/08/09 00:39:01;;;;;;;0.10;0.10;;;;;;;;;;4916249;29;20051;-89
2022/08/09 00:41:27;;;;;;;0.10;0.10;;;;;;;;;;4901111;29;20079;-89
2022/08/09 00:43:53;;;;;;;0.10;0.10;;;;;;;;;;4916314;29;20485;-90
2022/08/09 00:46:19;;;;;;;0.10;0.10;;;;;;;;;;4900726;29;20055;-88
2022/08/09 00:48:45;;;;;;;0.10;0.10;;;;;;;;;;4900934;29;20400;-89
2022/08/09 00:51:11;;;;;;;0.10;0.10;;;;;;;;;;4900435;29;20135;-87
2022/08/09 00:53:38;;;;;;;0.10;0.10;;;;;;;;;;4900321;29;20485;-87
2022/08/09 00:56:04;;;;;;;0.10;0.10;;;;;;;;;;4900290;29;20404;-87
2022/08/09 00:58:30;;;;;;;0.10;0.10;;;;;;;;;;4916359;29;20095;-87
2022/08/09 01:00:56;;;;;;;0.10;0.10;;;;;;;;;;4900343;29;20122;-87
2022/08/09 01:03:41;;;;;;;0.10;0.10;;;;;;;;;;4900366;29;20129;-87
2022/08/09 01:06:12;;;;;;;0.10;0.10;;;;;;;;;;4899990;29;20044;-88
2022/08/09 01:08:42;;;;;;;0.10;0.10;;;;;;;;;;4915929;29;20047;-87
2022/08/09 01:11:11;;;;;;;0.10;0.10;;;;;;;;;;4916103;29;20070;-86
2022/08/09 01:13:45;;;;;;;0.10;0.10;;;;;;;;;;4897147;29;20399;-87
2022/08/09 01:16:11;;;;;;;0.10;0.10;;;;;;;;;;4912533;29;20088;-87
2022/08/09 01:18:37;;;;;;;0.10;0.10;;;;;;;;;;4900295;29;20196;-87
2022/08/09 01:21:21;;;;;;;0.10;0.10;;;;;;;;;;4916209;29;20114;-87
2022/08/09 01:23:59;;;;;;;0.10;0.10;;;;;;;;;;4899896;29;20040;-88
2022/08/09 01:26:36;;;;;;;0.10;0.10;;;;;;;;;;4899800;29;20044;-87
2022/08/09 01:29:02;;;;;;;0.10;0.10;;;;;;;;;;4899876;29;20083;-87
2022/08/09 01:31:28;;;;;;;0.10;0.10;;;;;;;;;;4915508;29;20052;-87
2022/08/09 01:33:54;;;;;;;0.10;0.10;;;;;;;;;;4915697;29;20111;-87
2022/08/09 01:36:21;;;;;;;0.10;0.10;;;;;;;;;;4915489;29;20460;-87
2022/08/09 01:38:47;;;;;;;0.10;0.10;;;;;;;;;;4899875;29;20100;-88
2022/08/09 01:41:15;;;;;;;0.10;0.10;;;;;;;;;;4899476;29;20128;-87
2022/08/09 01:43:43;;;;;;;0.10;0.10;;;;;;;;;;4899793;29;20457;-87
2022/08/09 01:46:09;;;;;;;0.10;0.10;;;;;;;;;;4899558;29;20131;-88
2022/08/09 01:48:35;;;;;;;0.10;0.10;;;;;;;;;;4899469;29;20051;-88
2022/08/09 01:51:01;;;;;;;0.10;0.10;;;;;;;;;;4915282;29;20051;-88
2022/08/09 01:53:28;;;;;;;0.10;0.10;;;;;;;;;;4899820;29;20102;-88
2022/08/09 01:55:54;;;;;;;0.10;0.10;;;;;;;;;;4914989;29;20044;-88
2022/08/09 01:58:20;;;;;;;0.10;0.10;;;;;;;;;;4899324;29;20044;-87
2022/08/09 02:00:46;;;;;;;0.10;0.10;;;;;;;;;;4899255;29;20044;-87
2022/08/09 02:03:13;;;;;;;0.10;0.10;;;;;;;;;;4899268;29;20532;-87
2022/08/09 02:05:39;;;;;;;0.10;0.10;;;;;;;;;;4899564;29;20404;-88
2022/08/09 02:08:08;;;;;;;0.10;0.10;;;;;;;;;;4899475;29;20048;-87
2022/08/09 02:10:38;;;;;;;0.10;0.10;;;;;;;;;;4914936;29;20040;-88
2022/08/09 02:13:05;;;;;;;0.10;0.10;;;;;;;;;;4915267;29;20075;-87
2022/08/09 02:15:36;;;;;;;0.10;0.10;;;;;;;;;;4899235;29;20063;-88
2022/08/09 02:18:02;;;;;;;0.10;0.10;;;;;;;;;;4915456;29;20511;-88
2022/08/09 02:20:31;;;;;;;0.10;0.10;;;;;;;;;;4899445;29;20531;-88
2022/08/09 02:23:03;;;;;;;0.10;0.10;;;;;;;;;;4915123;29;20134;-88
2022/08/09 02:25:31;;;;;;;0.10;0.10;;;;;;;;;;4899973;29;20108;-88
2022/08/09 02:28:08;;;;;;;0.10;0.10;;;;;;;;;;4884505;29;20044;-88
2022/08/09 02:30:42;;;;;;;0.10;0.10;;;;;;;;;;4915663;29;20079;-88
2022/08/09 02:33:14;;;;;;;0.10;0.10;;;;;;;;;;4915282;29;20058;-88
2022/08/09 02:35:40;;;;;;;0.10;0.10;;;;;;;;;;4922907;29;20048;-89
2022/08/09 02:38:06;;;;;;;0.10;0.10;;;;;;;;;;4908978;29;20288;-87
2022/08/09 02:40:32;;;;;;;0.10;0.10;;;;;;;;;;4922873;29;20040;-88
2022/08/09 02:42:58;;;;;;;0.10;0.10;;;;;;;;;;4921230;29;20050;-87
2022/08/09 02:45:29;;;;;;;0.10;0.10;;;;;;;;;;4902243;29;20044;-88
2022/08/09 02:47:55;;;;;;;0.10;0.10;;;;;;;;;;4899034;29;20052;-88
2022/08/09 02:50:25;;;;;;;0.10;0.10;;;;;;;;;;4914536;29;20056;-88
2022/08/09 02:53:13;;;;;;;0.10;0.10;;;;;;;;;;4901426;29;20127;-88
2022/08/09 02:55:39;;;;;;;0.10;0.10;;;;;;;;;;4902345;29;20100;-88
2022/08/09 02:58:05;;;;;;;0.10;0.10;;;;;;;;;;4902675;29;20056;-88
2022/08/09 03:00:31;;;;;;;0.10;0.10;;;;;;;;;;4902408;29;20040;-88
2022/08/09 03:02:57;;;;;;;0.10;0.10;;;;;;;;;;4918065;29;20071;-88
2022/08/09 03:05:23;;;;;;;0.10;0.10;;;;;;;;;;4902622;29;20056;-88
2022/08/09 03:07:49;;;;;;;0.10;0.10;;;;;;;;;;4902246;29;20056;-87
2022/08/09 03:10:15;;;;;;;0.10;0.10;;;;;;;;;;4902339;29;20574;-87
2022/08/09 03:12:41;;;;;;;0.10;0.10;;;;;;;;;;4917929;29;20040;-87
2022/08/09 03:15:08;;;;;;;0.10;0.10;;;;;;;;;;4904986;29;20079;-89
2022/08/09 03:17:35;;;;;;;0.10;0.10;;;;;;;;;;4909048;29;20451;-88
2022/08/09 03:20:01;;;;;;;0.10;0.10;;;;;;;;;;4909892;29;20095;-87
2022/08/09 03:22:27;;;;;;;0.10;0.10;;;;;;;;;;4909630;29;20052;-89
2022/08/09 03:24:53;;;;;;;0.10;0.10;;;;;;;;;;4927728;29;20040;-89
2022/08/09 03:27:19;;;;;;;0.10;0.10;;;;;;;;;;4927790;29;20064;-89
2022/08/09 03:29:45;;;;;;;0.10;0.10;;;;;;;;;;4904573;29;20071;-88
2022/08/09 03:32:11;;;;;;;0.10;0.10;;;;;;;;;;4901807;29;20123;-88
2022/08/09 03:34:37;;;;;;;0.10;0.10;;;;;;;;;;4902281;29;20079;-88
2022/08/09 03:37:03;;;;;;;0.10;0.10;;;;;;;;;;4901855;29;20048;-88
2022/08/09 03:39:29;;;;;;;0.10;0.10;;;;;;;;;;4901954;29;20135;-89
2022/08/09 03:41:55;;;;;;;0.10;0.10;;;;;;;;;;4917591;29;20488;-88
2022/08/09 03:44:24;;;;;;;0.10;0.10;;;;;;;;;;4901735;29;20055;-88
2022/08/09 03:46:50;;;;;;;0.10;0.10;;;;;;;;;;4902001;29;20036;-88
2022/08/09 03:49:18;;;;;;;0.10;0.10;;;;;;;;;;4917243;29;20075;-88
2022/08/09 03:51:44;;;;;;;0.10;0.10;;;;;;;;;;4901644;29;20044;-87
2022/08/09 03:54:11;;;;;;;0.10;0.10;;;;;;;;;;4917327;29;20044;-88
2022/08/09 03:56:37;;;;;;;0.10;0.10;;;;;;;;;;4901366;29;20484;-88
2022/08/09 03:59:03;;;;;;;0.10;0.10;;;;;;;;;;4916886;29;20046;-89
2022/08/09 04:01:29;;;;;;;0.10;0.10;;;;;;;;;;4901570;29;20042;-88
2022/08/09 04:03:55;;;;;;;0.10;0.10;;;;;;;;;;4901239;29;20043;-88
2022/08/09 04:06:21;;;;;;;0.10;0.10;;;;;;;;;;4917154;29;20472;-88
2022/08/09 04:08:46;;;;;;;0.10;0.10;;;;;;;;;;4901340;29;20048;-88
2022/08/09 04:11:13;;;;;;;0.10;0.10;;;;;;;;;;4901404;29;20139;-88
2022/08/09 04:13:38;;;;;;;0.10;0.10;;;;;;;;;;4901306;29;20088;-88
2022/08/09 04:16:05;;;;;;;0.10;0.10;;;;;;;;;;4916807;29;20098;-88
2022/08/09 04:18:31;;;;;;;0.10;0.10;;;;;;;;;;4900921;29;20059;-88
2022/08/09 04:20:56;;;;;;;0.10;0.10;;;;;;;;;;4916855;29;20040;-87
2022/08/09 04:23:22;;;;;;;0.10;0.10;;;;;;;;;;4901051;29;20072;-87
2022/08/09 04:25:48;;;;;;;0.10;0.10;;;;;;;;;;4900973;29;20043;-88
2022/08/09 04:28:14;;;;;;;0.10;0.10;;;;;;;;;;4916578;29;20099;-87
2022/08/09 04:30:40;;;;;;;0.10;0.10;;;;;;;;;;4901011;29;20056;-87
2022/08/09 04:33:06;;;;;;;0.10;0.10;;;;;;;;;;4916820;29;20051;-87
2022/08/09 04:35:32;;;;;;;0.10;0.10;;;;;;;;;;4900898;29;20079;-88
2022/08/09 04:37:58;;;;;;;0.10;0.10;;;;;;;;;;4916469;29;20044;-89
2022/08/09 04:40:46;;;;;;;0.10;0.10;;;;;;;;;;4900829;29;20195;-89
2022/08/09 04:43:10;;;;;;;0.10;0.10;;;;;;;;;;4932627;29;20048;-89
2022/08/09 04:45:36;;;;;;;0.10;0.10;;;;;;;;;;4901130;29;20047;-89
2022/08/09 04:48:03;;;;;;;0.10;0.10;;;;;;;;;;4900611;29;20107;-88
2022/08/09 04:50:29;;;;;;;0.10;0.10;;;;;;;;;;4900692;29;20395;-88
2022/08/09 04:52:54;;;;;;;0.10;0.10;;;;;;;;;;4900610;29;20092;-87
2022/08/09 04:55:20;;;;;;;0.10;0.10;;;;;;;;;;4900223;29;20131;-87
2022/08/09 04:57:46;;;;;;;0.10;0.10;;;;;;;;;;4916071;29;20067;-87
2022/08/09 05:00:13;;;;;;;0.10;0.10;;;;;;;;;;4900723;29;20040;-87
2022/08/09 05:02:40;;;;;;;0.10;0.10;;;;;;;;;;4916046;29;20043;-87
2022/08/09 05:05:10;;;;;;;0.10;0.10;;;;;;;;;;4916498;29;20048;-86
2022/08/09 05:07:36;;;;;;;0.10;0.10;;;;;;;;;;4900101;29;20291;-86
2022/08/09 05:10:02;;;;;;;0.10;0.10;;;;;;;;;;4915728;29;20043;-87
2022/08/09 05:12:28;;;;;;;0.10;0.10;;;;;;;;;;4915869;29;20040;-87
2022/08/09 05:14:54;;;;;;;0.10;0.10;;;;;;;;;;4899966;29;20444;-88
2022/08/09 05:17:23;;;;;;;0.10;0.10;;;;;;;;;;4915450;29;20139;-85
2022/08/09 05:19:49;;;;;;;0.10;0.10;;;;;;;;;;4900286;29;20110;-87
2022/08/09 05:22:15;;;;;;;0.10;0.10;;;;;;;;;;4915955;29;20497;-87
2022/08/09 05:24:41;;;;;;;0.10;0.10;;;;;;;;;;4899925;29;20204;-86
2022/08/09 05:27:07;;;;;;;0.10;0.10;;;;;;;;;;4899641;29;20117;-87
2022/08/09 05:29:33;;;;;;;0.10;0.10;;;;;;;;;;4915518;29;20134;-89
2022/08/09 05:32:00;;;;;;;0.10;0.10;;;;;;;;;;4915280;29;20047;-87
2022/08/09 05:34:26;;;;;;;0.10;0.10;;;;;;;;;;4899491;29;20051;-87
2022/08/09 05:36:52;;;;;;;0.10;0.10;;;;;;;;;;4915031;29;20048;-89
2022/08/09 05:39:18;;;;;;;0.10;0.10;;;;;;;;;;4915173;29;20058;-87
2022/08/09 05:41:44;;;;;;;0.10;0.10;;;;;;;;;;4915766;29;20040;-87
2022/08/09 05:44:10;;;;;;;0.10;0.10;;;;;;;;;;4915094;29;20488;-86
2022/08/09 05:46:36;;;;;;;0.10;0.10;;;;;;;;;;4915090;29;20062;-87
2022/08/09 05:49:02;;;;;;;0.10;0.10;;;;;;;;;;4899523;29;20107;-87
2022/08/09 05:51:28;;;;;;;0.10;0.10;;;;;;;;;;4915133;29;20058;-88
2022/08/09 05:53:54;;;;;;;0.10;0.10;;;;;;;;;;4914935;29;20040;-87
2022/08/09 05:56:20;;;;;;;0.10;0.10;;;;;;;;;;4915868;29;20051;-87
2022/08/09 05:58:46;;;;;;;0.10;0.10;;;;;;;;;;4899174;29;20083;-90
2022/08/09 06:01:12;;;;;;;0.10;0.10;;;;;;;;;;4899079;29;20044;-89
2022/08/09 06:03:38;;;;;;;0.10;0.10;;;;;;;;;;4899178;29;20044;-88
2022/08/09 06:06:04;;;;;;;0.10;0.10;;;;;;;;;;4914736;29;20416;-88
2022/08/09 06:08:30;;;;;;;0.10;0.10;;;;;;;;;;4899136;29;20098;-88
2022/08/09 06:10:56;;;;;;;0.10;0.10;;;;;;;;;;4899019;29;20504;-88
2022/08/09 06:13:22;;;;;;;0.10;0.10;;;;;;;;;;4899020;29;20449;-88
2022/08/09 06:15:49;;;;;;;0.10;0.10;;;;;;;;;;4898964;29;20062;-88
2022/08/09 06:18:14;;;;;;;0.10;0.10;;;;;;;;;;4898871;29;20056;-88
2022/08/09 06:20:40;;;;;;;0.10;0.10;;;;;;;;;;4914540;29;20043;-89
2022/08/09 06:23:07;;;;;;;0.10;0.10;;;;;;;;;;4914621;29;20051;-89
2022/08/09 06:25:33;;;;;;;0.10;0.10;;;;;;;;;;4898813;29;20128;-88
2022/08/09 06:27:59;;;;;;;0.20;0.20;;;;;;;;;;4902178;29;20079;-89
2022/08/09 06:30:25;;;;;;;0.10;0.10;;;;;;;;;;4902749;29;20048;-89
2022/08/09 06:32:51;;;;;;;0.10;0.10;;;;;;;;;;4902994;29;20508;-88
2022/08/09 06:35:18;;;;;;;0.20;0.20;;;;;;;;;;4918385;29;20040;-89
2022/08/09 06:37:44;;;;;;;0.10;0.10;;;;;;;;;;4902637;29;20126;-89
2022/08/09 06:40:10;;;;;;;0.10;0.10;;;;;;;;;;4903127;29;20082;-89
2022/08/09 06:42:36;;;;;;;0.10;0.10;;;;;;;;;;4918315;29;20098;-89
2022/08/09 06:45:02;;;;;;;0.10;0.10;;;;;;;;;;4918374;29;20036;-89
2022/08/09 06:47:28;;;;;;;0.10;0.10;;;;;;;;;;4918378;29;20104;-89
2022/08/09 06:49:54;;;;;;;0.10;0.10;;;;;;;;;;4918261;29;20154;-88
2022/08/09 06:52:20;;;;;;;0.20;0.20;;;;;;;;;;4902614;29;20088;-89
2022/08/09 06:54:46;;;;;;;0.10;0.10;;;;;;;;;;4902473;29;20040;-89
2022/08/09 06:57:13;;;;;;;0.10;0.10;;;;;;;;;;4918362;29;20695;-89
2022/08/09 06:59:39;;;;;;;0.10;0.10;;;;;;;;;;4917999;29;20051;-89
2022/08/09 07:02:05;;;;;;;0.10;0.10;;;;;;;;;;4918141;29;20127;-89
2022/08/09 07:04:31;;;;;;;0.10;0.10;;;;;;;;;;4902425;29;20123;-88
2022/08/09 07:06:57;;;;;;;0.20;0.20;;;;;;;;;;4902216;29;20059;-89
2022/08/09 07:09:22;;;;;;;0.10;0.10;;;;;;;;;;4918181;29;20040;-89
2022/08/09 07:11:49;;;;;;;0.20;0.20;;;;;;;;;;4917962;29;20393;-89
2022/08/09 07:14:16;;;;;;;0.10;0.10;;;;;;;;;;4902054;29;20048;-89
2022/08/09 07:16:45;;;;;;;0.13;0.13;;;;;;;;;;4886261;29;20071;-89
2022/08/09 07:19:11;;;;;;;0.10;0.10;;;;;;;;;;4902847;29;20452;-89
2022/08/09 07:21:38;;;;;;;0.20;0.20;;;;;;;;;;4902002;29;20472;-88
2022/08/09 07:24:04;;;;;;;0.10;0.10;;;;;;;;;;4902115;29;20044;-89
2022/08/09 07:26:30;;;;;;;0.10;0.10;;;;;;;;;;4917544;29;20044;-89
2022/08/09 07:28:56;;;;;;;0.10;0.10;;;;;;;;;;4901845;29;20055;-89
2022/08/09 07:31:22;;;;;;;0.20;0.20;;;;;;;;;;4901838;29;20040;-89
2022/08/09 07:33:48;;;;;;;0.10;0.10;;;;;;;;;;4901634;29;20416;-89
2022/08/09 07:36:14;;;;;;;0.10;0.10;;;;;;;;;;4901791;29;20086;-89
2022/08/09 07:38:40;;;;;;;0.10;0.10;;;;;;;;;;4901401;29;20080;-89
2022/08/09 07:41:06;;;;;;;0.10;0.10;;;;;;;;;;4917345;29;20051;-89
2022/08/09 07:43:32;;;;;;;0.20;0.20;;;;;;;;;;4901655;29;20412;-88
2022/08/09 07:45:58;;;;;;;0.10;0.10;;;;;;;;;;4901488;29;20055;-88
2022/08/09 07:48:24;;;;;;;0.20;0.20;;;;;;;;;;4901686;29;20097;-88
2022/08/09 07:50:50;;;;;;;0.10;0.10;;;;;;;;;;4901452;29;20040;-89
2022/08/09 07:53:16;;;;;;;0.10;0.10;;;;;;;;;;4901363;29;20076;-89
2022/08/09 07:55:42;;;;;;;0.20;0.20;;;;;;;;;;4916974;29;20051;-89
2022/08/09 07:58:08;;;;;;;0.10;0.10;;;;;;;;;;4916960;29;20040;-88
2022/08/09 08:00:34;;;;;;;0.10;0.10;;;;;;;;;;4901457;29;20046;-89
2022/08/09 08:03:00;;;;;;;0.15;0.15;;;;;;;;;;4916921;29;20502;-89
2022/08/09 08:05:26;;;;;;;0.10;0.10;;;;;;;;;;4901511;29;20040;-89
2022/08/09 08:07:53;;;;;;;0.10;0.10;;;;;;;;;;4901226;29;20047;-89
2022/08/09 08:10:20;;;;;;;0.10;0.10;;;;;;;;;;4901028;29;20044;-89
2022/08/09 08:12:46;;;;;;;0.10;0.10;;;;;;;;;;4916960;29;20397;-89
2022/08/09 08:15:13;;;;;;;0.20;0.20;;;;;;;;;;4916349;29;20113;-87
2022/08/09 08:17:39;;;;;;;0.15;0.15;;;;;;;;;;4901132;29;20360;-87
2022/08/09 08:20:05;;;;;;;0.10;0.10;;;;;;;;;;4916580;29;20381;-87
2022/08/09 08:22:31;;;;;;;0.10;0.10;;;;;;;;;;4900905;29;20036;-86
2022/08/09 08:24:57;;;;;;;0.20;0.20;;;;;;;;;;4901058;29;20075;-87
2022/08/09 08:27:23;;;;;;;0.20;0.20;;;;;;;;;;4901009;29;20044;-86
2022/08/09 08:29:50;;;;;;;0.10;0.10;;;;;;;;;;4916429;29;20088;-86
2022/08/09 08:32:16;;;;;;;0.20;0.20;;;;;;;;;;4916500;29;20044;-87
2022/08/09 08:34:42;;;;;;;0.20;0.20;;;;;;;;;;4900772;29;20122;-87
2022/08/09 08:37:08;;;;;;;0.10;0.10;;;;;;;;;;4916364;29;20171;-87
2022/08/09 08:39:34;;;;;;;0.15;0.15;;;;;;;;;;4916396;29;20463;-87
2022/08/09 08:42:00;;;;;;;0.10;0.10;;;;;;;;;;4900602;29;20044;-87
2022/08/09 08:44:27;;;;;;;0.10;0.10;;;;;;;;;;4900528;29;20084;-87
2022/08/09 08:46:53;;;;;;;0.10;0.10;;;;;;;;;;4916688;29;20454;-87
2022/08/09 08:49:20;;;;;;;0.47;0.22;;;;;;;;;;4899437;29;20048;-87
2022/08/09 08:51:46;;;;;;;0.20;0.20;;;;;;;;;;4900334;29;20400;-87
2022/08/09 08:54:13;;;;;;;0.10;0.10;;;;;;;;;;4900313;29;20047;-87
2022/08/09 08:56:39;;;;;;;0.10;0.10;;;;;;;;;;4915996;29;20040;-87
2022/08/09 08:59:06;;;;;;;0.10;0.10;;;;;;;;;;4900059;29;20052;-87
2022/08/09 09:01:32;;;;;;;0.10;0.10;;;;;;;;;;4915865;29;20506;-87
2022/08/09 09:03:59;;;;;;;0.10;0.10;;;;;;;;;;4900453;29;20107;-87
2022/08/09 09:06:25;;;;;;;0.10;0.10;;;;;;;;;;4900517;29;20115;-87
2022/08/09 09:08:51;;;;;;;0.10;0.10;;;;;;;;;;4899966;29;20047;-88
2022/08/09 09:11:17;;;;;;;0.10;0.10;;;;;;;;;;4900001;29;20040;-87
2022/08/09 09:13:43;;;;;;;0.10;0.10;;;;;;;;;;4899852;29;20083;-88
2022/08/09 09:16:09;;;;;;;0.20;0.20;;;;;;;;;;4900054;29;20060;-88
2022/08/09 09:18:35;;;;;;;0.17;0.17;;;;;;;;;;4899894;29;20377;-87
2022/08/09 09:21:01;;;;;;;0.20;0.20;;;;;;;;;;4915645;29;20056;-87
2022/08/09 09:23:39;;;;;;;0.10;0.10;;;;;;;;;;4899948;29;20432;-88
2022/08/09 09:26:05;;;;;;;0.20;0.20;;;;;;;;;;4899683;29;20040;-87
2022/08/09 09:28:34;;;;;;;0.20;0.20;;;;;;;;;;4899904;29;20045;-88
2022/08/09 09:31:00;;;;;;;0.20;0.20;;;;;;;;;;4899720;29;20044;-88
2022/08/09 09:33:33;;;;;;;0.20;0.20;;;;;;;;;;4899632;29;20043;-88
2022/08/09 09:36:04;;;;;;;0.20;0.20;;;;;;;;;;4899614;29;20052;-88
2022/08/09 09:38:39;;;;;;;0.10;0.10;;;;;;;;;;4899745;29;20104;-88
2022/08/09 09:41:06;;;;;;;0.20;0.20;;;;;;;;;;4899787;29;20126;-88
2022/08/09 09:43:32;;;;;;;0.15;0.15;;;;;;;;;;4899465;29;20404;-88
2022/08/09 09:46:01;;;;;;;0.20;0.20;;;;;;;;;;4899579;29;20464;-87
2022/08/09 09:48:28;;;;;;;0.20;0.20;;;;;;;;;;4899506;29;20067;-89
2022/08/09 09:50:54;;;;;;;0.20;0.20;;;;;;;;;;4899274;29;20036;-88
2022/08/09 09:53:20;;;;;;;0.20;0.20;;;;;;;;;;4899172;29;20583;-87
2022/08/09 09:55:54;;;;;;;0.20;0.20;;;;;;;;;;4899354;29;20044;-88
2022/08/09 09:58:20;;;;;;;0.20;0.20;;;;;;;;;;4899128;29;20413;-88
2022/08/09 10:00:46;;;;;;;0.20;0.20;;;;;;;;;;4899035;29;20079;-87
2022/08/09 10:03:12;;;;;;;0.30;0.30;;;;;;;;;;4914982;29;20040;-88
2022/08/09 10:05:55;;;;;;;0.17;0.17;;;;;;;;;;4899329;29;20062;-87
2022/08/09 10:08:22;;;;;;;0.10;0.10;;;;;;;;;;4899084;29;20044;-87
2022/08/09 10:10:48;;;;;;;0.10;0.10;;;;;;;;;;4915070;29;20046;-87
2022/08/09 10:13:14;;;;;;;0.20;0.20;;;;;;;;;;4899090;29;20044;-87
2022/08/09 10:15:47;;;;;;;0.20;0.20;;;;;;;;;;4914579;29;20063;-88
2022/08/09 10:18:14;;;;;;;0.20;0.20;;;;;;;;;;4898884;29;20044;-88
2022/08/09 10:20:40;;;;;;;0.30;0.20;;;;;;;;;;4899032;29;20040;-88
2022/08/09 10:23:16;;;;;;;0.17;0.17;;;;;;;;;;4914655;29;20036;-87
2022/08/09 10:25:43;;;;;;;0.10;0.10;;;;;;;;;;4899145;29;20183;-88
2022/08/09 10:28:09;;;;;;;0.20;0.20;;;;;;;;;;4898796;29;20076;-87
2022/08/09 10:30:35;;;;;;;0.10;0.10;;;;;;;;;;4898777;29;20044;-87
2022/08/09 10:33:01;;;;;;;0.10;0.10;;;;;;;;;;4914929;29;20480;-87
2022/08/09 10:35:27;;;;;;;0.20;0.20;;;;;;;;;;4899584;29;20048;-88
2022/08/09 10:37:53;;;;;;;0.10;0.10;;;;;;;;;;4925765;29;20087;-89
2022/08/09 10:40:19;;;;;;;0.10;0.10;;;;;;;;;;4915685;29;20040;-89
2022/08/09 10:42:47;;;;;;;0.10;0.10;;;;;;;;;;4933764;29;20040;-88
2022/08/09 10:45:13;;;;;;;0.10;0.10;;;;;;;;;;4917470;29;20050;-88
2022/08/09 10:48:01;;;;;;;0.10;0.10;;;;;;;;;;4917514;29;20044;-88
2022/08/09 10:51:05;;;;;;;0.17;0.17;;;;;;;;;;4933353;29;20130;-88
2022/08/09 10:53:26;;;;;;;0.20;0.20;;;;;;;;;;4917724;29;20040;-87
2022/08/09 10:56:12;;;;;;;0.20;0.20;;;;;;;;;;4917456;29;20047;-88
2022/08/09 10:58:38;;;;;;;0.32;0.32;;;;;;;;;;4933379;29;20090;-87
2022/08/09 11:01:04;;;;;;;0.20;0.20;;;;;;;;;;4918100;29;20044;-87
2022/08/09 11:03:30;;;;;;;0.20;0.20;;;;;;;;;;4918138;29;20047;-87
2022/08/09 11:06:33;;;;;;;0.20;0.20;;;;;;;;;;4917640;29;20326;-87
2022/08/09 11:08:59;;;;;;;0.20;0.20;;;;;;;;;;4863269;29;20393;-87
2022/08/09 11:11:25;;;;;;;0.10;0.10;;;;;;;;;;4910204;29;20095;-87
2022/08/09 11:14:11;;;;;;;0.10;0.10;;;;;;;;;;4935796;29;20463;-89
2022/08/09 11:16:37;;;;;;;0.10;0.10;;;;;;;;;;4936390;29;20063;-89
2022/08/09 11:19:04;;;;;;;0.10;0.10;;;;;;;;;;4921172;29;20123;-88
2022/08/09 11:21:48;;;;;;;0.20;0.20;;;;;;;;;;4916886;29;20505;-89
2022/08/09 11:24:14;;;;;;;0.20;0.20;;;;;;;;;;4917761;29;20123;-88
2022/08/09 11:26:41;;;;;;;0.20;0.20;;;;;;;;;;4902059;29;20094;-88
2022/08/09 11:29:08;;;;;;;0.10;0.10;;;;;;;;;;4917334;29;20051;-88
2022/08/09 11:31:44;;;;;;;0.10;0.10;;;;;;;;;;4901832;29;20047;-88
2022/08/09 11:34:30;;;;;;;0.20;0.20;;;;;;;;;;4901610;29;20048;-88
2022/08/09 11:36:56;;;;;;;0.20;0.20;;;;;;;;;;4882554;29;20058;-87
2022/08/09 11:39:23;;;;;;;0.10;0.10;;;;;;;;;;4901467;29;20044;-92
2022/08/09 11:41:49;;;;;;;0.15;0.15;;;;;;;;;;4901422;29;20096;-88
2022/08/09 11:44:15;;;;;;;0.20;0.20;;;;;;;;;;4917302;29;20044;-88
2022/08/09 11:46:51;;;;;;;0.20;0.20;;;;;;;;;;4917205;29;20067;-88
2022/08/09 11:49:17;;;;;;;0.20;0.20;;;;;;;;;;4917000;29;20055;-90
2022/08/09 11:52:00;;;;;;;0.17;0.17;;;;;;;;;;4917206;29;20462;-89
2022/08/09 11:54:26;;;;;;;0.20;0.20;;;;;;;;;;4917424;29;20393;-89
2022/08/09 11:56:52;;;;;;;0.30;0.30;;;;;;;;;;4901243;29;20040;-90
2022/08/09 11:59:25;;;;;;;0.17;0.17;;;;;;;;;;4916913;29;20475;-88
2022/08/09 12:01:51;;;;;;;0.10;0.10;;;;;;;;;;4917004;29;20075;-88
2022/08/09 12:04:17;;;;;;;0.20;0.20;;;;;;;;;;4916782;29;20531;-88
2022/08/09 12:06:49;;;;;;;0.13;0.13;;;;;;;;;;4901051;29;20045;-90
2022/08/09 12:09:15;;;;;;;0.20;0.20;;;;;;;;;;4900950;29;20048;-89
2022/08/09 12:11:41;;;;;;;0.15;0.15;;;;;;;;;;4900937;29;20050;-90
2022/08/09 12:14:09;;;;;;;0.10;0.10;;;;;;;;;;4916702;29;20055;-89
2022/08/09 12:16:41;;;;;;;0.13;0.13;;;;;;;;;;4916644;29;20116;-89
2022/08/09 12:19:08;;;;;;;0.10;0.10;;;;;;;;;;4900487;29;20557;-89
2022/08/09 12:21:35;;;;;;;0.10;0.10;;;;;;;;;;4900826;29;20037;-90
2022/08/09 12:24:01;;;;;;;0.10;0.10;;;;;;;;;;4915541;29;20079;-89
2022/08/09 12:26:39;;;;;;;0.10;0.10;;;;;;;;;;4900689;29;20048;-89
2022/08/09 12:29:06;;;;;;;0.10;0.10;;;;;;;;;;4916339;29;20079;-90
2022/08/09 12:31:32;;;;;;;0.10;0.10;;;;;;;;;;4916558;29;20052;-90
2022/08/09 12:33:58;;;;;;;0.10;0.10;;;;;;;;;;4916293;29;20040;-88
2022/08/09 12:36:24;;;;;;;0.10;0.10;;;;;;;;;;4916032;29;20044;-90
2022/08/09 12:38:50;;;;;;;0.20;0.20;;;;;;;;;;4900271;29;20369;-91
2022/08/09 12:41:23;;;;;;;0.10;0.10;;;;;;;;;;4915926;29;20051;-92
2022/08/09 12:43:49;;;;;;;0.17;0.17;;;;;;;;;;4915906;29;20523;-91
2022/08/09 12:46:16;;;;;;;0.10;0.10;;;;;;;;;;4915733;29;20512;-90
2022/08/09 12:48:42;;;;;;;0.10;0.10;;;;;;;;;;4915924;29;20051;-91
2022/08/09 12:51:09;;;;;;;0.20;0.20;;;;;;;;;;4915895;29;20040;-92
2022/08/09 12:53:46;;;;;;;0.13;0.13;;;;;;;;;;4884771;29;20473;-93
2022/08/09 12:56:13;;;;;;;0.10;0.10;;;;;;;;;;4900584;29;20048;-91
2022/08/09 12:58:40;;;;;;;0.10;0.10;;;;;;;;;;4915688;29;20040;-90
2022/08/09 13:01:19;;;;;;;0.10;0.10;;;;;;;;;;4900405;29;20388;-91
2022/08/09 13:03:53;;;;;;;0.10;0.10;;;;;;;;;;4884140;29;20074;-91
2022/08/09 13:06:32;;;;;;;0.10;0.10;;;;;;;;;;4915486;29;20051;-91
2022/08/09 13:09:10;;;;;;;0.10;0.10;;;;;;;;;;4915649;29;20107;-92
2022/08/09 13:11:41;;;;;;;0.10;0.10;;;;;;;;;;4884410;29;20052;-91
2022/08/09 13:14:08;;;;;;;0.10;0.10;;;;;;;;;;4915747;29;20396;-92
2022/08/09 13:16:42;;;;;;;0.17;0.17;;;;;;;;;;4915349;29;20062;-91
2022/08/09 13:19:09;;;;;;;0.10;0.10;;;;;;;;;;4915682;29;20104;-92
2022/08/09 13:21:35;;;;;;;0.20;0.20;;;;;;;;;;4915150;29;20076;-91
2022/08/09 13:24:02;;;;;;;0.20;0.20;;;;;;;;;;4899764;29;20099;-92
2022/08/09 13:26:40;;;;;;;0.13;0.13;;;;;;;;;;4915468;29;20052;-92
2022/08/09 13:29:16;;;;;;;0.10;0.10;;;;;;;;;;4914831;29;20048;-92
2022/08/09 13:31:58;;;;;;;0.20;0.20;;;;;;;;;;4883558;29;20051;-92
2022/08/09 13:34:24;;;;;;;0.10;0.10;;;;;;;;;;4914998;29;20136;-93
2022/08/09 13:36:51;;;;;;;0.20;0.20;;;;;;;;;;4898543;29;20040;-92
2022/08/09 13:39:17;;;;;;;0.10;0.10;;;;;;;;;;4914689;29;20127;-92
2022/08/09 13:41:43;;;;;;;0.10;0.10;;;;;;;;;;4915219;29;20396;-92
2022/08/09 13:44:09;;;;;;;0.30;0.30;;;;;;;;;;4883443;29;20048;-91
2022/08/09 13:46:38;;;;;;;0.15;0.15;;;;;;;;;;4887617;29;20138;-91
2022/08/09 13:49:04;;;;;;;0.10;0.10;;;;;;;;;;4934224;29;20047;-92
2022/08/09 13:51:30;;;;;;;0.20;0.20;;;;;;;;;;4933931;29;20051;-91
2022/08/09 13:53:56;;;;;;;0.20;0.20;;;;;;;;;;4933925;29;20052;-89
2022/08/09 13:56:22;;;;;;;0.10;0.10;;;;;;;;;;4918133;29;20102;-90
2022/08/09 13:58:50;;;;;;;0.13;0.13;;;;;;;;;;4933828;29;20047;-90
2022/08/09 14:01:16;;;;;;;0.20;0.20;;;;;;;;;;4913527;29;20603;-90
2022/08/09 14:03:42;;;;;;;0.20;0.20;;;;;;;;;;4898486;29;20132;-90
2022/08/09 14:06:11;;;;;;;0.20;0.20;;;;;;;;;;4899257;29;20044;-90
2022/08/09 14:08:37;;;;;;;0.10;0.10;;;;;;;;;;4883326;29;20040;-90
2022/08/09 14:11:03;;;;;;;0.20;0.20;;;;;;;;;;4883687;29;20048;-91
2022/08/09 14:13:29;;;;;;;0.10;0.10;;;;;;;;;;4883151;29;20412;-91
2022/08/09 14:15:55;;;;;;;0.10;0.10;;;;;;;;;;4882730;29;20072;-91
2022/08/09 14:18:23;;;;;;;0.15;0.15;;;;;;;;;;4883087;29;20051;-91
2022/08/09 14:20:50;;;;;;;0.20;0.20;;;;;;;;;;4882825;29;20130;-91
2022/08/09 14:23:16;;;;;;;0.10;0.10;;;;;;;;;;4883277;29;20040;-91
2022/08/09 14:25:42;;;;;;;0.20;0.20;;;;;;;;;;4887835;29;20411;-92
2022/08/09 14:28:08;;;;;;;0.10;0.10;;;;;;;;;;4933230;29;20039;-92
2022/08/09 14:30:34;;;;;;;0.10;0.10;;;;;;;;;;4933740;29;20043;-91
2022/08/09 14:33:00;;;;;;;0.20;0.20;;;;;;;;;;4933665;29;20040;-91
2022/08/09 14:35:26;;;;;;;0.10;0.10;;;;;;;;;;4933760;29;20426;-91
2022/08/09 14:37:52;;;;;;;0.20;0.20;;;;;;;;;;4905527;29;20175;-91
2022/08/09 14:40:18;;;;;;;0.10;0.10;;;;;;;;;;4914560;29;20099;-90
2022/08/09 14:42:44;;;;;;;0.20;0.20;;;;;;;;;;4898967;29;20047;-91
2022/08/09 14:45:11;;;;;;;0.20;0.20;;;;;;;;;;4914813;29;20040;-91
2022/08/09 14:47:37;;;;;;;0.13;0.13;;;;;;;;;;4915427;29;20044;-92